Aviation Digital Data Service (ADDS)

Output produced by METARs form (0738 UTC 19 February 2019)
found at http://www.aviationweather.gov/metar/data/
 
METAR text: KBOI 190653Z 30012KT 10SM CLR M04/M08 A3015 RMK AO2 SLP233 T10391083 400171061
Conditions at: KBOI (BOISE , ID, US) observed 0653 UTC 19 February 2019
Temperature: -3.9°C (25°F)
Dewpoint: -8.3°C (17°F) [RH = 71%]
Pressure (altimeter): 30.15 inches Hg (1021.1 mb)
[Sea-level pressure: 1023.3 mb]
Winds: from the WNW (300 degrees) at 14 MPH (12 knots; 6.2 m/s)
Visibility: 10 or more miles (16+ km)
Ceiling: at least 12,000 feet AGL
Clouds: sky clear below 12,000 feet AGL
Weather: no significant weather observed at this time

METAR text: KBOI 190553Z 29006KT 10SM SCT080 M04/M11 A3015 RMK AO2 SLP232 T10391106 10011 21039 58003
Conditions at: KBOI (BOISE , ID, US) observed 0553 UTC 19 February 2019
Temperature: -3.9°C (25°F)
Dewpoint: -10.6°C (13°F) [RH = 60%]
Pressure (altimeter): 30.15 inches Hg (1021.1 mb)
[Sea-level pressure: 1023.2 mb]
Winds: from the WNW (290 degrees) at 7 MPH (6 knots; 3.1 m/s)
Visibility: 10 or more miles (16+ km)
Ceiling: at least 12,000 feet AGL
Clouds: scattered clouds at 8000 feet AGL
Weather: no significant weather observed at this time

METAR text: KBOI 190453Z 30007KT 10SM BKN090 M03/M11 A3016 RMK AO2 SLP236 T10281111
Conditions at: KBOI (BOISE , ID, US) observed 0453 UTC 19 February 2019
Temperature: -2.8°C (27°F)
Dewpoint: -11.1°C (12°F) [RH = 53%]
Pressure (altimeter): 30.16 inches Hg (1021.4 mb)
[Sea-level pressure: 1023.6 mb]
Winds: from the WNW (300 degrees) at 8 MPH (7 knots; 3.6 m/s)
Visibility: 10 or more miles (16+ km)
Ceiling: 9000 feet AGL
Clouds: broken clouds at 9000 feet AGL
Weather: no significant weather observed at this time

METAR text: KBOI 190353Z 33009KT 10SM BKN090 M03/M11 A3016 RMK AO2 SLP239 T10281111
Conditions at: KBOI (BOISE , ID, US) observed 0353 UTC 19 February 2019
Temperature: -2.8°C (27°F)
Dewpoint: -11.1°C (12°F) [RH = 53%]
Pressure (altimeter): 30.16 inches Hg (1021.4 mb)
[Sea-level pressure: 1023.9 mb]
Winds: from the NNW (330 degrees) at 10 MPH (9 knots; 4.6 m/s)
Visibility: 10 or more miles (16+ km)
Ceiling: 9000 feet AGL
Clouds: broken clouds at 9000 feet AGL
Weather: no significant weather observed at this time

METAR text: KBOI 190253Z 35008KT 10SM CLR M02/M11 A3016 RMK AO2 SLP240 T10221111 53013
Conditions at: KBOI (BOISE , ID, US) observed 0253 UTC 19 February 2019
Temperature: -2.2°C (28°F)
Dewpoint: -11.1°C (12°F) [RH = 50%]
Pressure (altimeter): 30.16 inches Hg (1021.4 mb)
[Sea-level pressure: 1024.0 mb]
Winds: from the N (350 degrees) at 9 MPH (8 knots; 4.1 m/s)
Visibility: 10 or more miles (16+ km)
Ceiling: at least 12,000 feet AGL
Clouds: sky clear below 12,000 feet AGL
Weather: no significant weather observed at this time

METAR text: KBOI 190153Z 35010KT 10SM CLR M02/M11 A3014 RMK AO2 SLP234 T10171106
Conditions at: KBOI (BOISE , ID, US) observed 0153 UTC 19 February 2019
Temperature: -1.7°C (29°F)
Dewpoint: -10.6°C (13°F) [RH = 51%]
Pressure (altimeter): 30.14 inches Hg (1020.7 mb)
[Sea-level pressure: 1023.4 mb]
Winds: from the N (350 degrees) at 12 MPH (10 knots; 5.1 m/s)
Visibility: 10 or more miles (16+ km)
Ceiling: at least 12,000 feet AGL
Clouds: sky clear below 12,000 feet AGL
Weather: no significant weather observed at this time

METAR text: KBOI 190053Z 34014G21KT 10SM CLR 00/M11 A3013 RMK AO2 SLP224 T00001111
Conditions at: KBOI (BOISE , ID, US) observed 0053 UTC 19 February 2019
Temperature: 0.0°C (32°F)
Dewpoint: -11.1°C (12°F) [RH = 43%]
Pressure (altimeter): 30.13 inches Hg (1020.4 mb)
[Sea-level pressure: 1022.4 mb]
Winds: from the NNW (340 degrees) at 16 MPH (14 knots; 7.2 m/s)
gusting to 24 MPH (21 knots; 10.8 m/s)
Visibility: 10 or more miles (16+ km)
Ceiling: at least 12,000 feet AGL
Clouds: sky clear below 12,000 feet AGL
Weather: no significant weather observed at this time

METAR text: KBOI 182353Z 33012KT 10SM SCT055 00/M11 A3011 RMK AO2 SLP221 T00001106 10017 21011 56006
Conditions at: KBOI (BOISE , ID, US) observed 2353 UTC 18 February 2019
Temperature: 0.0°C (32°F)
Dewpoint: -10.6°C (13°F) [RH = 45%]
Pressure (altimeter): 30.11 inches Hg (1019.7 mb)
[Sea-level pressure: 1022.1 mb]
Winds: from the NNW (330 degrees) at 14 MPH (12 knots; 6.2 m/s)
Visibility: 10 or more miles (16+ km)
Ceiling: at least 12,000 feet AGL
Clouds: scattered clouds at 5500 feet AGL
Weather: no significant weather observed at this time

METAR text: KBOI 182253Z 33014G20KT 10SM FEW060 01/M08 A3012 RMK AO2 SLP221 T00111083
Conditions at: KBOI (BOISE , ID, US) observed 2253 UTC 18 February 2019
Temperature: 1.1°C (34°F)
Dewpoint: -8.3°C (17°F) [RH = 49%]
Pressure (altimeter): 30.12 inches Hg (1020.1 mb)
[Sea-level pressure: 1022.1 mb]
Winds: from the NNW (330 degrees) at 16 MPH (14 knots; 7.2 m/s)
gusting to 23 MPH (20 knots; 10.3 m/s)
Visibility: 10 or more miles (16+ km)
Ceiling: at least 12,000 feet AGL
Clouds: few clouds at 6000 feet AGL
Weather: no significant weather observed at this time

METAR text: KBOI 182153Z 34011KT 10SM OVC060 01/M09 A3013 RMK AO2 SLP223 T00111094
Conditions at: KBOI (BOISE , ID, US) observed 2153 UTC 18 February 2019
Temperature: 1.1°C (34°F)
Dewpoint: -9.4°C (15°F) [RH = 45%]
Pressure (altimeter): 30.13 inches Hg (1020.4 mb)
[Sea-level pressure: 1022.3 mb]
Winds: from the NNW (340 degrees) at 13 MPH (11 knots; 5.7 m/s)
Visibility: 10 or more miles (16+ km)
Ceiling: 6000 feet AGL
Clouds: overcast cloud deck at 6000 feet AGL
Weather: no significant weather observed at this time

METAR text: KBOI 182053Z 34013G17KT 10SM SCT042 BKN055 OVC075 01/M08 A3014 RMK AO2 SLP226 T00061078 58004
Conditions at: KBOI (BOISE , ID, US) observed 2053 UTC 18 February 2019
Temperature: 0.6°C (33°F)
Dewpoint: -7.8°C (18°F) [RH = 53%]
Pressure (altimeter): 30.14 inches Hg (1020.7 mb)
[Sea-level pressure: 1022.6 mb]
Winds: from the NNW (340 degrees) at 15 MPH (13 knots; 6.7 m/s)
gusting to 20 MPH (17 knots; 8.7 m/s)
Visibility: 10 or more miles (16+ km)
Ceiling: 5500 feet AGL
Clouds: scattered clouds at 4200 feet AGL
broken clouds at 5500 feet AGL
overcast cloud deck at 7500 feet AGL
Weather: no significant weather observed at this time

METAR text: KBOI 181953Z 33015KT 10SM BKN033 BKN042 OVC075 01/M07 A3015 RMK AO2 SLP230 T00061067
Conditions at: KBOI (BOISE , ID, US) observed 1953 UTC 18 February 2019
Temperature: 0.6°C (33°F)
Dewpoint: -6.7°C (20°F) [RH = 58%]
Pressure (altimeter): 30.15 inches Hg (1021.1 mb)
[Sea-level pressure: 1023.0 mb]
Winds: from the NNW (330 degrees) at 17 MPH (15 knots; 7.7 m/s)
Visibility: 10 or more miles (16+ km)
Ceiling: 3300 feet AGL
Clouds: broken clouds at 3300 feet AGL
broken clouds at 4200 feet AGL
overcast cloud deck at 7500 feet AGL
Weather: no significant weather observed at this time

METAR text: KBOI 181940Z 32013G21KT 10SM SCT027 OVC036 00/M07 A3015 RMK AO2 T00001067
Conditions at: KBOI (BOISE , ID, US) observed 1940 UTC 18 February 2019
Temperature: 0.0°C (32°F)
Dewpoint: -6.7°C (20°F) [RH = 61%]
Pressure (altimeter): 30.15 inches Hg (1021.1 mb)
Winds: from the NW (320 degrees) at 15 MPH (13 knots; 6.7 m/s)
gusting to 24 MPH (21 knots; 10.8 m/s)
Visibility: 10 or more miles (16+ km)
Ceiling: 3600 feet AGL
Clouds: scattered clouds at 2700 feet AGL
overcast cloud deck at 3600 feet AGL
Weather: no significant weather observed at this time

METAR text: KBOI 181909Z 31012KT 10SM BKN027 BKN033 BKN080 01/M06 A3015 RMK AO2 T00061056
Conditions at: KBOI (BOISE , ID, US) observed 1909 UTC 18 February 2019
Temperature: 0.6°C (33°F)
Dewpoint: -5.6°C (22°F) [RH = 63%]
Pressure (altimeter): 30.15 inches Hg (1021.1 mb)
Winds: from the NW (310 degrees) at 14 MPH (12 knots; 6.2 m/s)
Visibility: 10 or more miles (16+ km)
Ceiling: 2700 feet AGL
Clouds: broken clouds at 2700 feet AGL
broken clouds at 3300 feet AGL
broken clouds at 8000 feet AGL
Weather: no significant weather observed at this time

METAR text: KBOI 181853Z 31013G18KT 10SM SCT026 BKN060 BKN080 M01/M06 A3015 RMK AO2 SLP233 T10061056
Conditions at: KBOI (BOISE , ID, US) observed 1853 UTC 18 February 2019
Temperature: -0.6°C (31°F)
Dewpoint: -5.6°C (22°F) [RH = 69%]
Pressure (altimeter): 30.15 inches Hg (1021.1 mb)
[Sea-level pressure: 1023.3 mb]
Winds: from the NW (310 degrees) at 15 MPH (13 knots; 6.7 m/s)
gusting to 21 MPH (18 knots; 9.3 m/s)
Visibility: 10 or more miles (16+ km)
Ceiling: 6000 feet AGL
Clouds: scattered clouds at 2600 feet AGL
broken clouds at 6000 feet AGL
broken clouds at 8000 feet AGL
Weather: no significant weather observed at this time

METAR text: KBOI 181753Z 31013KT 10SM FEW020 BKN070 OVC080 M01/M06 A3015 RMK AO2 SLP231 T10111056 11011 21061 51015
Conditions at: KBOI (BOISE , ID, US) observed 1753 UTC 18 February 2019
Temperature: -1.1°C (30°F)
Dewpoint: -5.6°C (22°F) [RH = 71%]
Pressure (altimeter): 30.15 inches Hg (1021.1 mb)
[Sea-level pressure: 1023.1 mb]
Winds: from the NW (310 degrees) at 15 MPH (13 knots; 6.7 m/s)
Visibility: 10 or more miles (16+ km)
Ceiling: 7000 feet AGL
Clouds: few clouds at 2000 feet AGL
broken clouds at 7000 feet AGL
overcast cloud deck at 8000 feet AGL
Weather: no significant weather observed at this time

METAR text: KBOI 181653Z 33005KT 10SM OVC075 M02/M05 A3014 RMK AO2 SLP228 T10171050
Conditions at: KBOI (BOISE , ID, US) observed 1653 UTC 18 February 2019
Temperature: -1.7°C (29°F)
Dewpoint: -5.0°C (23°F) [RH = 78%]
Pressure (altimeter): 30.14 inches Hg (1020.7 mb)
[Sea-level pressure: 1022.8 mb]
Winds: from the NNW (330 degrees) at 6 MPH (5 knots; 2.6 m/s)
Visibility: 10 or more miles (16+ km)
Ceiling: 7500 feet AGL
Clouds: overcast cloud deck at 7500 feet AGL
Weather: no significant weather observed at this time

METAR text: KBOI 181553Z 00000KT 10SM CLR M05/M07 A3013 RMK AO2 SLP227 T10501072
Conditions at: KBOI (BOISE , ID, US) observed 1553 UTC 18 February 2019
Temperature: -5.0°C (23°F)
Dewpoint: -7.2°C (19°F) [RH = 85%]
Pressure (altimeter): 30.13 inches Hg (1020.4 mb)
[Sea-level pressure: 1022.7 mb]
Winds: calm
Visibility: 10 or more miles (16+ km)
Ceiling: at least 12,000 feet AGL
Clouds: sky clear below 12,000 feet AGL
Weather: no significant weather observed at this time

METAR text: KBOI 181453Z 00000KT 10SM CLR M06/M08 A3010 RMK AO2 SLP217 T10561078 51009
Conditions at: KBOI (BOISE , ID, US) observed 1453 UTC 18 February 2019
Temperature: -5.6°C (22°F)
Dewpoint: -7.8°C (18°F) [RH = 84%]
Pressure (altimeter): 30.10 inches Hg (1019.4 mb)
[Sea-level pressure: 1021.7 mb]
Winds: calm
Visibility: 10 or more miles (16+ km)
Ceiling: at least 12,000 feet AGL
Clouds: sky clear below 12,000 feet AGL
Weather: no significant weather observed at this time

METAR text: KBOI 181353Z 00000KT 10SM CLR M05/M07 A3009 RMK AO2 SLP212 T10501067
Conditions at: KBOI (BOISE , ID, US) observed 1353 UTC 18 February 2019
Temperature: -5.0°C (23°F)
Dewpoint: -6.7°C (20°F) [RH = 88%]
Pressure (altimeter): 30.09 inches Hg (1019.0 mb)
[Sea-level pressure: 1021.2 mb]
Winds: calm
Visibility: 10 or more miles (16+ km)
Ceiling: at least 12,000 feet AGL
Clouds: sky clear below 12,000 feet AGL
Weather: no significant weather observed at this time

METAR text: KBOI 181253Z 00000KT 10SM FEW065 M04/M07 A3008 RMK AO2 SLP209 T10441067
Conditions at: KBOI (BOISE , ID, US) observed 1253 UTC 18 February 2019
Temperature: -4.4°C (24°F)
Dewpoint: -6.7°C (20°F) [RH = 84%]
Pressure (altimeter): 30.08 inches Hg (1018.7 mb)
[Sea-level pressure: 1020.9 mb]
Winds: calm
Visibility: 10 or more miles (16+ km)
Ceiling: at least 12,000 feet AGL
Clouds: few clouds at 6500 feet AGL
Weather: no significant weather observed at this time

METAR text: KBOI 181153Z 29004KT 10SM CLR M04/M07 A3007 RMK AO2 SLP204 T10441067 11017 21044 51005
Conditions at: KBOI (BOISE , ID, US) observed 1153 UTC 18 February 2019
Temperature: -4.4°C (24°F)
Dewpoint: -6.7°C (20°F) [RH = 84%]
Pressure (altimeter): 30.07 inches Hg (1018.4 mb)
[Sea-level pressure: 1020.4 mb]
Winds: from the WNW (290 degrees) at 5 MPH (4 knots; 2.1 m/s)
Visibility: 10 or more miles (16+ km)
Ceiling: at least 12,000 feet AGL
Clouds: sky clear below 12,000 feet AGL
Weather: no significant weather observed at this time

METAR text: KBOI 181053Z 00000KT 10SM CLR M04/M06 A3007 RMK AO2 SLP201 T10391061
Conditions at: KBOI (BOISE , ID, US) observed 1053 UTC 18 February 2019
Temperature: -3.9°C (25°F)
Dewpoint: -6.1°C (21°F) [RH = 85%]
Pressure (altimeter): 30.07 inches Hg (1018.4 mb)
[Sea-level pressure: 1020.1 mb]
Winds: calm
Visibility: 10 or more miles (16+ km)
Ceiling: at least 12,000 feet AGL
Clouds: sky clear below 12,000 feet AGL
Weather: no significant weather observed at this time

METAR text: KBOI 180953Z 30005KT 10SM CLR M04/M06 A3006 RMK AO2 SLP199 T10391056
Conditions at: KBOI (BOISE , ID, US) observed 0953 UTC 18 February 2019
Temperature: -3.9°C (25°F)
Dewpoint: -5.6°C (22°F) [RH = 88%]
Pressure (altimeter): 30.06 inches Hg (1018.0 mb)
[Sea-level pressure: 1019.9 mb]
Winds: from the WNW (300 degrees) at 6 MPH (5 knots; 2.6 m/s)
Visibility: 10 or more miles (16+ km)
Ceiling: at least 12,000 feet AGL
Clouds: sky clear below 12,000 feet AGL
Weather: no significant weather observed at this time

METAR text: KBOI 180853Z 29005KT 10SM CLR M03/M06 A3005 RMK AO2 SLP196 T10331056 53011
Conditions at: KBOI (BOISE , ID, US) observed 0853 UTC 18 February 2019
Temperature: -3.3°C (26°F)
Dewpoint: -5.6°C (22°F) [RH = 84%]
Pressure (altimeter): 30.05 inches Hg (1017.7 mb)
[Sea-level pressure: 1019.6 mb]
Winds: from the WNW (290 degrees) at 6 MPH (5 knots; 2.6 m/s)
Visibility: 10 or more miles (16+ km)
Ceiling: at least 12,000 feet AGL
Clouds: sky clear below 12,000 feet AGL
Weather: no significant weather observed at this time

METAR text: KBOI 180753Z AUTO 30006KT 10SM CLR M03/M05 A3004 RMK AO2 SLP192 T10281050
Conditions at: KBOI (BOISE , ID, US) observed 0753 UTC 18 February 2019
Temperature: -2.8°C (27°F)
Dewpoint: -5.0°C (23°F) [RH = 85%]
Pressure (altimeter): 30.04 inches Hg (1017.4 mb)
[Sea-level pressure: 1019.2 mb]
Winds: from the WNW (300 degrees) at 7 MPH (6 knots; 3.1 m/s)
Visibility: 10 or more miles (16+ km)
Ceiling: at least 12,000 feet AGL
Clouds: sky clear below 12,000 feet AGL
Weather: automated observation with no human augmentation;
there may or may not be significant weather present at this time

METAR text: KBOI 180653Z 29006KT 10SM CLR M02/M04 A3003 RMK AO2 SLP187 T10221044 400281022
Conditions at: KBOI (BOISE , ID, US) observed 0653 UTC 18 February 2019
Temperature: -2.2°C (28°F)
Dewpoint: -4.4°C (24°F) [RH = 85%]
Pressure (altimeter): 30.03 inches Hg (1017.0 mb)
[Sea-level pressure: 1018.7 mb]
Winds: from the WNW (290 degrees) at 7 MPH (6 knots; 3.1 m/s)
Visibility: 10 or more miles (16+ km)
Ceiling: at least 12,000 feet AGL
Clouds: sky clear below 12,000 feet AGL
Weather: no significant weather observed at this time

METAR text: KBOI 180553Z 29005KT 10SM CLR M02/M06 A3002 RMK AO2 SLP184 T10171056 10022 21017 53012
Conditions at: KBOI (BOISE , ID, US) observed 0553 UTC 18 February 2019
Temperature: -1.7°C (29°F)
Dewpoint: -5.6°C (22°F) [RH = 75%]
Pressure (altimeter): 30.02 inches Hg (1016.7 mb)
[Sea-level pressure: 1018.4 mb]
Winds: from the WNW (290 degrees) at 6 MPH (5 knots; 2.6 m/s)
Visibility: 10 or more miles (16+ km)
Ceiling: at least 12,000 feet AGL
Clouds: sky clear below 12,000 feet AGL
Weather: no significant weather observed at this time

METAR text: KBOI 180453Z 29005KT 10SM CLR M02/M05 A3000 RMK AO2 SLP177 T10171050
Conditions at: KBOI (BOISE , ID, US) observed 0453 UTC 18 February 2019
Temperature: -1.7°C (29°F)
Dewpoint: -5.0°C (23°F) [RH = 78%]
Pressure (altimeter): 30.00 inches Hg (1016.0 mb)
[Sea-level pressure: 1017.7 mb]
Winds: from the WNW (290 degrees) at 6 MPH (5 knots; 2.6 m/s)
Visibility: 10 or more miles (16+ km)
Ceiling: at least 12,000 feet AGL
Clouds: sky clear below 12,000 feet AGL
Weather: no significant weather observed at this time

METAR text: KBOI 180353Z 30004KT 10SM CLR M01/M04 A2999 RMK AO2 SLP174 T10111044
Conditions at: KBOI (BOISE , ID, US) observed 0353 UTC 18 February 2019
Temperature: -1.1°C (30°F)
Dewpoint: -4.4°C (24°F) [RH = 78%]
Pressure (altimeter): 29.99 inches Hg (1015.7 mb)
[Sea-level pressure: 1017.4 mb]
Winds: from the WNW (300 degrees) at 5 MPH (4 knots; 2.1 m/s)
Visibility: 10 or more miles (16+ km)
Ceiling: at least 12,000 feet AGL
Clouds: sky clear below 12,000 feet AGL
Weather: no significant weather observed at this time

METAR text: KBOI 180253Z 33005KT 10SM FEW034 M01/M04 A2998 RMK AO2 SLP170 T10061044 53014
Conditions at: KBOI (BOISE , ID, US) observed 0253 UTC 18 February 2019
Temperature: -0.6°C (31°F)
Dewpoint: -4.4°C (24°F) [RH = 75%]
Pressure (altimeter): 29.98 inches Hg (1015.3 mb)
[Sea-level pressure: 1017.0 mb]
Winds: from the NNW (330 degrees) at 6 MPH (5 knots; 2.6 m/s)
Visibility: 10 or more miles (16+ km)
Ceiling: at least 12,000 feet AGL
Clouds: few clouds at 3400 feet AGL
Weather: no significant weather observed at this time

METAR text: KBOI 180153Z 33006KT 10SM CLR 01/M03 A2997 RMK AO2 SLP166 T00061033
Conditions at: KBOI (BOISE , ID, US) observed 0153 UTC 18 February 2019
Temperature: 0.6°C (33°F)
Dewpoint: -3.3°C (26°F) [RH = 75%]
Pressure (altimeter): 29.97 inches Hg (1015.0 mb)
[Sea-level pressure: 1016.6 mb]
Winds: from the NNW (330 degrees) at 7 MPH (6 knots; 3.1 m/s)
Visibility: 10 or more miles (16+ km)
Ceiling: at least 12,000 feet AGL
Clouds: sky clear below 12,000 feet AGL
Weather: no significant weather observed at this time

METAR text: KBOI 180053Z 32007KT 10SM CLR 01/M03 A2995 RMK AO2 SLP158 T00111033
Conditions at: KBOI (BOISE , ID, US) observed 0053 UTC 18 February 2019
Temperature: 1.1°C (34°F)
Dewpoint: -3.3°C (26°F) [RH = 72%]
Pressure (altimeter): 29.95 inches Hg (1014.3 mb)
[Sea-level pressure: 1015.8 mb]
Winds: from the NW (320 degrees) at 8 MPH (7 knots; 3.6 m/s)
Visibility: 10 or more miles (16+ km)
Ceiling: at least 12,000 feet AGL
Clouds: sky clear below 12,000 feet AGL
Weather: no significant weather observed at this time

METAR text: KBOI 172353Z 33009KT 10SM BKN050 02/M03 A2994 RMK AO2 SLP154 60000 T00221028 10028 20000 53004
Conditions at: KBOI (BOISE , ID, US) observed 2353 UTC 17 February 2019
Temperature: 2.2°C (36°F)
Dewpoint: -2.8°C (27°F) [RH = 69%]
Pressure (altimeter): 29.94 inches Hg (1014.0 mb)
[Sea-level pressure: 1015.4 mb]
Winds: from the NNW (330 degrees) at 10 MPH (9 knots; 4.6 m/s)
Visibility: 10 or more miles (16+ km)
Ceiling: 5000 feet AGL
Clouds: broken clouds at 5000 feet AGL
Weather: no significant weather observed at this time

METAR text: KBOI 172253Z 34006KT 10SM BKN042 02/M03 A2993 RMK AO2 SLP149 T00221028
Conditions at: KBOI (BOISE , ID, US) observed 2253 UTC 17 February 2019
Temperature: 2.2°C (36°F)
Dewpoint: -2.8°C (27°F) [RH = 69%]
Pressure (altimeter): 29.93 inches Hg (1013.6 mb)
[Sea-level pressure: 1014.9 mb]
Winds: from the NNW (340 degrees) at 7 MPH (6 knots; 3.1 m/s)
Visibility: 10 or more miles (16+ km)
Ceiling: 4200 feet AGL
Clouds: broken clouds at 4200 feet AGL
Weather: no significant weather observed at this time

METAR text: KBOI 172153Z 36007KT 10SM FEW021 OVC046 02/M03 A2992 RMK AO2 SLP147 T00221028
Conditions at: KBOI (BOISE , ID, US) observed 2153 UTC 17 February 2019
Temperature: 2.2°C (36°F)
Dewpoint: -2.8°C (27°F) [RH = 69%]
Pressure (altimeter): 29.92 inches Hg (1013.3 mb)
[Sea-level pressure: 1014.7 mb]
Winds: from the N (360 degrees) at 8 MPH (7 knots; 3.6 m/s)
Visibility: 10 or more miles (16+ km)
Ceiling: 4600 feet AGL
Clouds: few clouds at 2100 feet AGL
overcast cloud deck at 4600 feet AGL
Weather: no significant weather observed at this time

METAR text: KBOI 172053Z 35007KT 10SM SCT023 BKN043 02/M03 A2992 RMK AO2 SLP148 60000 T00171028 55002
Conditions at: KBOI (BOISE , ID, US) observed 2053 UTC 17 February 2019
Temperature: 1.7°C (35°F)
Dewpoint: -2.8°C (27°F) [RH = 72%]
Pressure (altimeter): 29.92 inches Hg (1013.3 mb)
[Sea-level pressure: 1014.8 mb]
Winds: from the N (350 degrees) at 8 MPH (7 knots; 3.6 m/s)
Visibility: 10 or more miles (16+ km)
Ceiling: 4300 feet AGL
Clouds: scattered clouds at 2300 feet AGL
broken clouds at 4300 feet AGL
Weather: no significant weather observed at this time

METAR text: KBOI 172049Z 35008KT 10SM BKN023 BKN043 02/M03 A2992 RMK AO2
Conditions at: KBOI (BOISE , ID, US) observed 2049 UTC 17 February 2019
Temperature: 2.0°C (36°F)
Dewpoint: -3.0°C (27°F) [RH = 69%]
Pressure (altimeter): 29.92 inches Hg (1013.3 mb)
Winds: from the N (350 degrees) at 9 MPH (8 knots; 4.1 m/s)
Visibility: 10 or more miles (16+ km)
Ceiling: 2300 feet AGL
Clouds: broken clouds at 2300 feet AGL
broken clouds at 4300 feet AGL
Weather: no significant weather observed at this time

METAR text: KBOI 172037Z 36006KT 10SM SCT021 BKN044 02/M03 A2993 RMK AO2 T00171033
Conditions at: KBOI (BOISE , ID, US) observed 2037 UTC 17 February 2019
Temperature: 1.7°C (35°F)
Dewpoint: -3.3°C (26°F) [RH = 69%]
Pressure (altimeter): 29.93 inches Hg (1013.6 mb)
Winds: from the N (360 degrees) at 7 MPH (6 knots; 3.1 m/s)
Visibility: 10 or more miles (16+ km)
Ceiling: 4400 feet AGL
Clouds: scattered clouds at 2100 feet AGL
broken clouds at 4400 feet AGL
Weather: no significant weather observed at this time

METAR text: KBOI 171953Z 33009KT 10SM SCT015 OVC020 01/M02 A2993 RMK AO2 SNB20E29 SLP149 P0000 T00111022
Conditions at: KBOI (BOISE , ID, US) observed 1953 UTC 17 February 2019
Temperature: 1.1°C (34°F)
Dewpoint: -2.2°C (28°F) [RH = 79%]
Pressure (altimeter): 29.93 inches Hg (1013.6 mb)
[Sea-level pressure: 1014.9 mb]
Winds: from the NNW (330 degrees) at 10 MPH (9 knots; 4.6 m/s)
Visibility: 10 or more miles (16+ km)
Ceiling: 2000 feet AGL
Clouds: scattered clouds at 1500 feet AGL
overcast cloud deck at 2000 feet AGL
Weather: no significant weather observed at this time

Forecast for: KBOI (BOISE , ID, US)
Text: KBOI 190520Z 1906/2006 30006KT P6SM BKN080
Forecast period: 0600 to 1200 UTC 19 February 2019
Forecast type: FROM: standard forecast or significant change
Winds: from the WNW (300 degrees) at 7 MPH (6 knots; 3.1 m/s)
Visibility: 6 or more miles 10+ km)
Ceiling: 8000 feet AGL
Clouds: broken clouds at 8000 feet AGL
Weather: no significant weather forecast for this period
Text: FM191200 VRB03KT P6SM SCT050 OVC080
Forecast period: 1200 to 2200 UTC 19 February 2019
Forecast type: FROM: standard forecast or significant change
Winds: variable direction winds at 3 MPH (3 knots; 1.5 m/s)
Visibility: 6 or more miles 10+ km)
Ceiling: 8000 feet AGL
Clouds: scattered clouds at 5000 feet AGL
overcast cloud deck at 8000 feet AGL
Weather: no significant weather forecast for this period
Text: FM192200 32008KT P6SM OVC040
Forecast period: 2200 UTC 19 February 2019 to 0300 UTC 20 February 2019
Forecast type: FROM: standard forecast or significant change
Winds: from the NW (320 degrees) at 9 MPH (8 knots; 4.1 m/s)
Visibility: 6 or more miles 10+ km)
Ceiling: 4000 feet AGL
Clouds: overcast cloud deck at 4000 feet AGL
Weather: no significant weather forecast for this period
Text: FM200300 12005KT 4SM -SN BR OVC020
Forecast period: 0300 to 0500 UTC 20 February 2019
Forecast type: FROM: standard forecast or significant change
Winds: from the ESE (120 degrees) at 6 MPH (5 knots; 2.6 m/s)
Visibility: 4 miles (6 km)
Ceiling: 2000 feet AGL
Clouds: overcast cloud deck at 2000 feet AGL
Weather: -SN BR  (light snow, mist)
Text: FM200500 13005KT 2SM -SN BR OVC015
Forecast period: 0500 to 0600 UTC 20 February 2019
Forecast type: FROM: standard forecast or significant change
Winds: from the SE (130 degrees) at 6 MPH (5 knots; 2.6 m/s)
Visibility: 2.00 miles (3.22 km)
Ceiling: 1500 feet AGL
Clouds: overcast cloud deck at 1500 feet AGL
Weather: -SN BR  (light snow, mist)